sensor_id;sensor_type;location;lat;lon;timestamp;P1;durP1;ratioP1;P2;durP2;ratioP2
70388;SDS011;58659;49.050;8.530;2023-03-01T00:01:16;3.80;;;1.40;;
70388;SDS011;58659;49.050;8.530;2023-03-01T00:03:43;7.20;;;2.33;;
70388;SDS011;58659;49.050;8.530;2023-03-01T00:06:09;5.70;;;2.67;;
70388;SDS011;58659;49.050;8.530;2023-03-01T00:08:35;5.80;;;2.87;;
70388;SDS011;58659;49.050;8.530;2023-03-01T00:11:01;6.90;;;2.67;;
70388;SDS011;58659;49.050;8.530;2023-03-01T00:13:46;10.17;;;2.73;;
70388;SDS011;58659;49.050;8.530;2023-03-01T00:16:14;9.97;;;2.70;;
70388;SDS011;58659;49.050;8.530;2023-03-01T00:18:41;6.50;;;2.53;;
70388;SDS011;58659;49.050;8.530;2023-03-01T00:21:07;7.63;;;2.20;;
70388;SDS011;58659;49.050;8.530;2023-03-01T00:23:36;5.07;;;2.30;;
70388;SDS011;58659;49.050;8.530;2023-03-01T00:26:02;6.37;;;2.63;;
70388;SDS011;58659;49.050;8.530;2023-03-01T00:28:27;5.73;;;2.57;;
70388;SDS011;58659;49.050;8.530;2023-03-01T00:30:52;8.50;;;2.93;;
70388;SDS011;58659;49.050;8.530;2023-03-01T00:33:18;7.13;;;2.30;;
70388;SDS011;58659;49.050;8.530;2023-03-01T00:35:44;7.97;;;3.50;;
70388;SDS011;58659;49.050;8.530;2023-03-01T00:38:09;8.93;;;3.23;;
70388;SDS011;58659;49.050;8.530;2023-03-01T00:40:35;7.77;;;2.83;;
70388;SDS011;58659;49.050;8.530;2023-03-01T00:43:01;7.90;;;2.93;;
70388;SDS011;58659;49.050;8.530;2023-03-01T00:45:27;10.43;;;3.57;;
70388;SDS011;58659;49.050;8.530;2023-03-01T00:47:53;6.27;;;2.10;;
70388;SDS011;58659;49.050;8.530;2023-03-01T00:50:19;7.77;;;3.03;;
70388;SDS011;58659;49.050;8.530;2023-03-01T00:52:44;6.00;;;2.60;;
70388;SDS011;58659;49.050;8.530;2023-03-01T00:55:10;11.20;;;3.03;;
70388;SDS011;58659;49.050;8.530;2023-03-01T00:57:36;6.60;;;2.77;;
70388;SDS011;58659;49.050;8.530;2023-03-01T01:00:02;5.97;;;2.97;;
70388;SDS011;58659;49.050;8.530;2023-03-01T01:02:29;11.10;;;3.33;;
70388;SDS011;58659;49.050;8.530;2023-03-01T01:04:54;9.40;;;3.80;;
70388;SDS011;58659;49.050;8.530;2023-03-01T01:07:19;5.77;;;2.80;;
70388;SDS011;58659;49.050;8.530;2023-03-01T01:09:45;8.27;;;3.00;;
70388;SDS011;58659;49.050;8.530;2023-03-01T01:12:11;6.87;;;2.90;;
70388;SDS011;58659;49.050;8.530;2023-03-01T01:14:36;9.90;;;3.33;;
70388;SDS011;58659;49.050;8.530;2023-03-01T01:17:01;7.60;;;2.93;;
70388;SDS011;58659;49.050;8.530;2023-03-01T01:19:27;5.70;;;2.43;;
70388;SDS011;58659;49.050;8.530;2023-03-01T01:21:52;8.57;;;2.73;;
70388;SDS011;58659;49.050;8.530;2023-03-01T01:24:18;8.23;;;3.40;;
70388;SDS011;58659;49.050;8.530;2023-03-01T01:26:43;5.93;;;2.67;;
70388;SDS011;58659;49.050;8.530;2023-03-01T01:29:09;6.13;;;3.30;;
70388;SDS011;58659;49.050;8.530;2023-03-01T01:31:35;7.90;;;2.57;;
70388;SDS011;58659;49.050;8.530;2023-03-01T01:34:03;8.00;;;3.60;;
70388;SDS011;58659;49.050;8.530;2023-03-01T01:36:32;7.83;;;3.50;;
70388;SDS011;58659;49.050;8.530;2023-03-01T01:38:57;5.57;;;2.77;;
70388;SDS011;58659;49.050;8.530;2023-03-01T01:41:23;7.43;;;3.37;;
70388;SDS011;58659;49.050;8.530;2023-03-01T01:44:10;9.13;;;3.63;;
70388;SDS011;58659;49.050;8.530;2023-03-01T01:46:39;7.10;;;3.13;;
70388;SDS011;58659;49.050;8.530;2023-03-01T01:49:20;9.53;;;3.00;;
70388;SDS011;58659;49.050;8.530;2023-03-01T01:51:48;7.33;;;3.30;;
70388;SDS011;58659;49.050;8.530;2023-03-01T01:54:19;9.17;;;3.63;;
70388;SDS011;58659;49.050;8.530;2023-03-01T01:56:50;10.23;;;3.93;;
70388;SDS011;58659;49.050;8.530;2023-03-01T01:59:20;9.57;;;3.07;;
70388;SDS011;58659;49.050;8.530;2023-03-01T02:01:49;8.57;;;3.00;;
70388;SDS011;58659;49.050;8.530;2023-03-01T02:04:15;13.07;;;3.60;;
70388;SDS011;58659;49.050;8.530;2023-03-01T02:06:41;9.20;;;3.23;;
70388;SDS011;58659;49.050;8.530;2023-03-01T02:09:15;7.37;;;3.00;;
70388;SDS011;58659;49.050;8.530;2023-03-01T02:11:41;7.67;;;2.83;;
70388;SDS011;58659;49.050;8.530;2023-03-01T02:14:08;7.20;;;3.20;;
70388;SDS011;58659;49.050;8.530;2023-03-01T02:16:33;7.57;;;3.70;;
70388;SDS011;58659;49.050;8.530;2023-03-01T02:18:59;7.20;;;3.10;;
70388;SDS011;58659;49.050;8.530;2023-03-01T02:21:36;7.97;;;3.20;;
70388;SDS011;58659;49.050;8.530;2023-03-01T02:26:50;9.77;;;3.50;;
70388;SDS011;58659;49.050;8.530;2023-03-01T02:29:18;9.13;;;3.43;;
70388;SDS011;58659;49.050;8.530;2023-03-01T02:31:44;6.60;;;3.47;;
70388;SDS011;58659;49.050;8.530;2023-03-01T02:34:13;9.00;;;3.50;;
70388;SDS011;58659;49.050;8.530;2023-03-01T02:36:40;9.87;;;3.47;;
70388;SDS011;58659;49.050;8.530;2023-03-01T02:39:10;6.83;;;3.33;;
70388;SDS011;58659;49.050;8.530;2023-03-01T02:41:42;9.37;;;4.07;;
70388;SDS011;58659;49.050;8.530;2023-03-01T02:44:11;7.93;;;3.30;;
70388;SDS011;58659;49.050;8.530;2023-03-01T02:46:41;8.47;;;2.80;;
70388;SDS011;58659;49.050;8.530;2023-03-01T02:49:18;9.10;;;3.10;;
70388;SDS011;58659;49.050;8.530;2023-03-01T02:56:40;10.57;;;3.60;;
70388;SDS011;58659;49.050;8.530;2023-03-01T02:59:06;5.70;;;2.87;;
70388;SDS011;58659;49.050;8.530;2023-03-01T03:01:32;6.10;;;3.10;;
70388;SDS011;58659;49.050;8.530;2023-03-01T03:04:07;6.67;;;3.13;;
70388;SDS011;58659;49.050;8.530;2023-03-01T03:06:42;12.90;;;3.70;;
70388;SDS011;58659;49.050;8.530;2023-03-01T03:09:08;7.00;;;3.13;;
70388;SDS011;58659;49.050;8.530;2023-03-01T03:11:33;9.87;;;3.57;;
70388;SDS011;58659;49.050;8.530;2023-03-01T03:13:58;8.87;;;3.40;;
70388;SDS011;58659;49.050;8.530;2023-03-01T03:16:24;8.23;;;3.27;;
70388;SDS011;58659;49.050;8.530;2023-03-01T03:18:49;8.90;;;3.80;;
70388;SDS011;58659;49.050;8.530;2023-03-01T03:21:15;8.50;;;3.83;;
70388;SDS011;58659;49.050;8.530;2023-03-01T03:23:41;8.00;;;2.83;;
70388;SDS011;58659;49.050;8.530;2023-03-01T03:26:06;14.27;;;4.03;;
70388;SDS011;58659;49.050;8.530;2023-03-01T03:28:32;12.03;;;4.37;;
70388;SDS011;58659;49.050;8.530;2023-03-01T03:30:59;13.17;;;4.07;;
70388;SDS011;58659;49.050;8.530;2023-03-01T03:33:28;13.53;;;3.43;;
70388;SDS011;58659;49.050;8.530;2023-03-01T03:35:54;11.30;;;3.60;;
70388;SDS011;58659;49.050;8.530;2023-03-01T03:38:20;6.77;;;3.53;;
70388;SDS011;58659;49.050;8.530;2023-03-01T03:40:50;7.57;;;3.60;;
70388;SDS011;58659;49.050;8.530;2023-03-01T03:43:21;10.00;;;4.00;;
70388;SDS011;58659;49.050;8.530;2023-03-01T03:45:48;9.83;;;3.23;;
70388;SDS011;58659;49.050;8.530;2023-03-01T03:48:14;11.13;;;3.87;;
70388;SDS011;58659;49.050;8.530;2023-03-01T03:50:41;9.03;;;4.07;;
70388;SDS011;58659;49.050;8.530;2023-03-01T03:53:11;10.17;;;3.70;;
70388;SDS011;58659;49.050;8.530;2023-03-01T03:55:37;12.20;;;4.03;;
70388;SDS011;58659;49.050;8.530;2023-03-01T03:58:04;7.53;;;3.53;;
70388;SDS011;58659;49.050;8.530;2023-03-01T04:00:35;8.07;;;4.20;;
70388;SDS011;58659;49.050;8.530;2023-03-01T04:03:01;7.93;;;3.00;;
70388;SDS011;58659;49.050;8.530;2023-03-01T04:05:27;9.57;;;3.77;;
70388;SDS011;58659;49.050;8.530;2023-03-01T04:07:54;9.00;;;3.87;;
70388;SDS011;58659;49.050;8.530;2023-03-01T04:10:26;8.13;;;3.27;;
70388;SDS011;58659;49.050;8.530;2023-03-01T04:12:53;7.87;;;3.53;;
70388;SDS011;58659;49.050;8.530;2023-03-01T04:15:21;10.80;;;4.47;;
70388;SDS011;58659;49.050;8.530;2023-03-01T04:17:49;8.27;;;4.33;;
70388;SDS011;58659;49.050;8.530;2023-03-01T04:20:16;9.43;;;3.90;;
70388;SDS011;58659;49.050;8.530;2023-03-01T04:22:49;10.27;;;4.13;;
70388;SDS011;58659;49.050;8.530;2023-03-01T04:25:16;10.60;;;4.43;;
70388;SDS011;58659;49.050;8.530;2023-03-01T04:27:42;13.07;;;3.83;;
70388;SDS011;58659;49.050;8.530;2023-03-01T04:30:07;10.60;;;4.13;;
70388;SDS011;58659;49.050;8.530;2023-03-01T04:32:33;11.23;;;4.30;;
70388;SDS011;58659;49.050;8.530;2023-03-01T04:34:59;10.63;;;3.83;;
70388;SDS011;58659;49.050;8.530;2023-03-01T04:37:25;8.97;;;3.43;;
70388;SDS011;58659;49.050;8.530;2023-03-01T04:39:50;9.17;;;4.50;;
70388;SDS011;58659;49.050;8.530;2023-03-01T04:42:17;11.77;;;4.33;;
70388;SDS011;58659;49.050;8.530;2023-03-01T04:44:43;8.27;;;3.70;;
70388;SDS011;58659;49.050;8.530;2023-03-01T04:47:09;8.40;;;3.27;;
70388;SDS011;58659;49.050;8.530;2023-03-01T04:49:35;12.50;;;4.47;;
70388;SDS011;58659;49.050;8.530;2023-03-01T04:52:00;13.57;;;4.77;;
70388;SDS011;58659;49.050;8.530;2023-03-01T04:54:29;12.13;;;4.20;;
70388;SDS011;58659;49.050;8.530;2023-03-01T04:56:55;8.50;;;3.33;;
70388;SDS011;58659;49.050;8.530;2023-03-01T04:59:21;5.57;;;3.43;;
70388;SDS011;58659;49.050;8.530;2023-03-01T05:01:47;12.27;;;4.60;;
70388;SDS011;58659;49.050;8.530;2023-03-01T05:04:13;10.60;;;3.57;;
70388;SDS011;58659;49.050;8.530;2023-03-01T05:06:39;10.20;;;3.47;;
70388;SDS011;58659;49.050;8.530;2023-03-01T05:09:04;11.00;;;3.63;;
70388;SDS011;58659;49.050;8.530;2023-03-01T05:11:30;10.07;;;3.60;;
70388;SDS011;58659;49.050;8.530;2023-03-01T05:13:58;12.17;;;4.70;;
70388;SDS011;58659;49.050;8.530;2023-03-01T05:16:24;11.97;;;4.40;;
70388;SDS011;58659;49.050;8.530;2023-03-01T05:18:49;8.47;;;4.07;;
70388;SDS011;58659;49.050;8.530;2023-03-01T05:21:16;7.57;;;3.83;;
70388;SDS011;58659;49.050;8.530;2023-03-01T05:23:41;11.37;;;4.33;;
70388;SDS011;58659;49.050;8.530;2023-03-01T05:26:07;11.07;;;4.13;;
70388;SDS011;58659;49.050;8.530;2023-03-01T05:28:33;10.13;;;3.37;;
70388;SDS011;58659;49.050;8.530;2023-03-01T05:30:58;11.67;;;4.30;;
70388;SDS011;58659;49.050;8.530;2023-03-01T05:33:24;10.00;;;4.27;;
70388;SDS011;58659;49.050;8.530;2023-03-01T05:35:54;11.67;;;4.03;;
70388;SDS011;58659;49.050;8.530;2023-03-01T05:38:19;12.60;;;4.47;;
70388;SDS011;58659;49.050;8.530;2023-03-01T05:40:46;10.33;;;4.30;;
70388;SDS011;58659;49.050;8.530;2023-03-01T05:43:13;13.00;;;4.17;;
70388;SDS011;58659;49.050;8.530;2023-03-01T05:45:40;10.83;;;4.03;;
70388;SDS011;58659;49.050;8.530;2023-03-01T05:48:06;11.17;;;4.23;;
70388;SDS011;58659;49.050;8.530;2023-03-01T05:50:33;11.37;;;4.23;;
70388;SDS011;58659;49.050;8.530;2023-03-01T05:55:25;10.87;;;4.50;;
70388;SDS011;58659;49.050;8.530;2023-03-01T05:57:52;13.40;;;4.83;;
70388;SDS011;58659;49.050;8.530;2023-03-01T06:00:18;12.10;;;4.37;;
70388;SDS011;58659;49.050;8.530;2023-03-01T06:02:45;10.00;;;4.33;;
70388;SDS011;58659;49.050;8.530;2023-03-01T06:05:11;13.57;;;4.77;;
70388;SDS011;58659;49.050;8.530;2023-03-01T06:07:37;11.90;;;4.43;;
70388;SDS011;58659;49.050;8.530;2023-03-01T06:10:04;12.53;;;4.23;;
70388;SDS011;58659;49.050;8.530;2023-03-01T06:12:31;10.93;;;4.07;;
70388;SDS011;58659;49.050;8.530;2023-03-01T06:14:57;13.53;;;4.17;;
70388;SDS011;58659;49.050;8.530;2023-03-01T06:17:23;10.20;;;3.83;;
70388;SDS011;58659;49.050;8.530;2023-03-01T06:19:48;14.33;;;4.63;;
70388;SDS011;58659;49.050;8.530;2023-03-01T06:22:13;11.43;;;4.97;;
70388;SDS011;58659;49.050;8.530;2023-03-01T06:24:38;12.70;;;4.97;;
70388;SDS011;58659;49.050;8.530;2023-03-01T06:27:04;11.73;;;5.00;;
70388;SDS011;58659;49.050;8.530;2023-03-01T06:29:29;13.50;;;5.07;;
70388;SDS011;58659;49.050;8.530;2023-03-01T06:31:55;17.77;;;5.80;;
70388;SDS011;58659;49.050;8.530;2023-03-01T06:34:20;15.90;;;5.87;;
70388;SDS011;58659;49.050;8.530;2023-03-01T06:36:46;7.53;;;4.20;;
70388;SDS011;58659;49.050;8.530;2023-03-01T06:39:12;12.67;;;4.53;;
70388;SDS011;58659;49.050;8.530;2023-03-01T06:41:37;10.43;;;3.83;;
70388;SDS011;58659;49.050;8.530;2023-03-01T06:44:03;11.37;;;3.73;;
70388;SDS011;58659;49.050;8.530;2023-03-01T06:46:28;8.23;;;3.90;;
70388;SDS011;58659;49.050;8.530;2023-03-01T06:48:54;13.00;;;4.47;;
70388;SDS011;58659;49.050;8.530;2023-03-01T06:51:19;12.37;;;4.73;;
70388;SDS011;58659;49.050;8.530;2023-03-01T06:53:45;10.10;;;4.00;;
70388;SDS011;58659;49.050;8.530;2023-03-01T06:56:11;7.87;;;3.63;;
70388;SDS011;58659;49.050;8.530;2023-03-01T06:58:36;12.00;;;4.47;;
70388;SDS011;58659;49.050;8.530;2023-03-01T07:01:09;12.53;;;4.80;;
70388;SDS011;58659;49.050;8.530;2023-03-01T07:03:34;12.37;;;4.93;;
70388;SDS011;58659;49.050;8.530;2023-03-01T07:06:00;13.53;;;4.57;;
70388;SDS011;58659;49.050;8.530;2023-03-01T07:08:26;11.30;;;4.10;;
70388;SDS011;58659;49.050;8.530;2023-03-01T07:10:58;8.57;;;4.60;;
70388;SDS011;58659;49.050;8.530;2023-03-01T07:13:23;15.03;;;4.60;;
70388;SDS011;58659;49.050;8.530;2023-03-01T07:15:49;15.90;;;4.97;;
70388;SDS011;58659;49.050;8.530;2023-03-01T07:18:14;9.53;;;4.07;;
70388;SDS011;58659;49.050;8.530;2023-03-01T07:20:40;10.10;;;4.03;;
70388;SDS011;58659;49.050;8.530;2023-03-01T07:23:08;13.67;;;5.00;;
70388;SDS011;58659;49.050;8.530;2023-03-01T07:26:26;14.43;;;4.20;;
70388;SDS011;58659;49.050;8.530;2023-03-01T07:28:51;11.37;;;5.10;;
70388;SDS011;58659;49.050;8.530;2023-03-01T07:31:16;14.33;;;5.23;;
70388;SDS011;58659;49.050;8.530;2023-03-01T07:33:41;9.37;;;3.87;;
70388;SDS011;58659;49.050;8.530;2023-03-01T07:36:07;9.37;;;3.47;;
70388;SDS011;58659;49.050;8.530;2023-03-01T07:38:32;8.37;;;3.90;;
70388;SDS011;58659;49.050;8.530;2023-03-01T07:41:02;12.83;;;5.17;;
70388;SDS011;58659;49.050;8.530;2023-03-01T07:43:28;12.50;;;3.33;;
70388;SDS011;58659;49.050;8.530;2023-03-01T07:45:54;9.53;;;3.93;;
70388;SDS011;58659;49.050;8.530;2023-03-01T07:48:23;10.87;;;3.90;;
70388;SDS011;58659;49.050;8.530;2023-03-01T07:50:48;9.47;;;3.40;;
70388;SDS011;58659;49.050;8.530;2023-03-01T07:53:14;11.63;;;4.00;;
70388;SDS011;58659;49.050;8.530;2023-03-01T07:55:39;10.23;;;3.57;;
70388;SDS011;58659;49.050;8.530;2023-03-01T07:58:04;12.50;;;3.70;;
70388;SDS011;58659;49.050;8.530;2023-03-01T08:00:30;13.50;;;3.77;;
70388;SDS011;58659;49.050;8.530;2023-03-01T08:02:58;13.03;;;3.87;;
70388;SDS011;58659;49.050;8.530;2023-03-01T08:05:24;10.50;;;3.80;;
70388;SDS011;58659;49.050;8.530;2023-03-01T08:07:49;11.47;;;4.23;;
70388;SDS011;58659;49.050;8.530;2023-03-01T08:10:14;9.73;;;4.17;;
70388;SDS011;58659;49.050;8.530;2023-03-01T08:12:40;29.40;;;4.37;;
70388;SDS011;58659;49.050;8.530;2023-03-01T08:15:05;7.70;;;3.23;;
70388;SDS011;58659;49.050;8.530;2023-03-01T08:17:31;10.90;;;4.43;;
70388;SDS011;58659;49.050;8.530;2023-03-01T08:19:56;13.23;;;4.83;;
70388;SDS011;58659;49.050;8.530;2023-03-01T08:22:22;10.43;;;4.50;;
70388;SDS011;58659;49.050;8.530;2023-03-01T08:24:47;9.83;;;3.40;;
70388;SDS011;58659;49.050;8.530;2023-03-01T08:27:12;6.00;;;2.83;;
70388;SDS011;58659;49.050;8.530;2023-03-01T08:29:40;9.73;;;3.43;;
70388;SDS011;58659;49.050;8.530;2023-03-01T08:32:05;6.97;;;3.67;;
70388;SDS011;58659;49.050;8.530;2023-03-01T08:34:30;22.93;;;2.90;;
70388;SDS011;58659;49.050;8.530;2023-03-01T08:36:56;6.63;;;3.43;;
70388;SDS011;58659;49.050;8.530;2023-03-01T08:39:22;9.53;;;3.50;;
70388;SDS011;58659;49.050;8.530;2023-03-01T08:41:47;8.97;;;4.37;;
70388;SDS011;58659;49.050;8.530;2023-03-01T08:44:13;8.60;;;2.90;;
70388;SDS011;58659;49.050;8.530;2023-03-01T08:46:41;8.57;;;2.63;;
70388;SDS011;58659;49.050;8.530;2023-03-01T08:49:08;9.30;;;3.83;;
70388;SDS011;58659;49.050;8.530;2023-03-01T08:51:38;6.30;;;2.93;;
70388;SDS011;58659;49.050;8.530;2023-03-01T08:54:05;7.73;;;3.10;;
70388;SDS011;58659;49.050;8.530;2023-03-01T08:56:31;7.10;;;2.93;;
70388;SDS011;58659;49.050;8.530;2023-03-01T08:58:57;6.63;;;1.83;;
70388;SDS011;58659;49.050;8.530;2023-03-01T09:01:22;5.93;;;2.83;;
70388;SDS011;58659;49.050;8.530;2023-03-01T09:03:47;8.97;;;3.23;;
70388;SDS011;58659;49.050;8.530;2023-03-01T09:06:13;4.33;;;2.43;;
70388;SDS011;58659;49.050;8.530;2023-03-01T09:08:40;9.80;;;2.77;;
70388;SDS011;58659;49.050;8.530;2023-03-01T09:11:07;7.73;;;3.63;;
70388;SDS011;58659;49.050;8.530;2023-03-01T09:13:38;12.20;;;3.20;;
70388;SDS011;58659;49.050;8.530;2023-03-01T09:16:04;8.40;;;3.07;;
70388;SDS011;58659;49.050;8.530;2023-03-01T09:18:31;8.20;;;3.67;;
70388;SDS011;58659;49.050;8.530;2023-03-01T09:21:15;11.03;;;4.50;;
70388;SDS011;58659;49.050;8.530;2023-03-01T09:23:43;4.30;;;2.17;;
70388;SDS011;58659;49.050;8.530;2023-03-01T09:26:17;5.77;;;2.10;;
70388;SDS011;58659;49.050;8.530;2023-03-01T09:28:49;4.10;;;2.27;;
70388;SDS011;58659;49.050;8.530;2023-03-01T09:31:16;4.97;;;1.97;;
70388;SDS011;58659;49.050;8.530;2023-03-01T09:33:45;5.63;;;2.13;;
70388;SDS011;58659;49.050;8.530;2023-03-01T09:36:15;6.53;;;3.10;;
70388;SDS011;58659;49.050;8.530;2023-03-01T09:38:42;8.77;;;3.33;;
70388;SDS011;58659;49.050;8.530;2023-03-01T09:43:52;11.67;;;2.70;;
70388;SDS011;58659;49.050;8.530;2023-03-01T09:46:22;6.03;;;2.90;;
70388;SDS011;58659;49.050;8.530;2023-03-01T09:51:19;4.37;;;2.03;;
70388;SDS011;58659;49.050;8.530;2023-03-01T09:53:51;1.27;;;1.07;;
70388;SDS011;58659;49.050;8.530;2023-03-01T09:56:20;4.10;;;1.70;;
70388;SDS011;58659;49.050;8.530;2023-03-01T10:04:50;8.47;;;2.70;;
70388;SDS011;58659;49.050;8.530;2023-03-01T10:09:51;1.07;;;0.97;;
70388;SDS011;58659;49.050;8.530;2023-03-01T10:12:18;5.33;;;2.47;;
70388;SDS011;58659;49.050;8.530;2023-03-01T10:20:25;5.50;;;1.10;;
70388;SDS011;58659;49.050;8.530;2023-03-01T10:22:55;1.53;;;1.30;;
70388;SDS011;58659;49.050;8.530;2023-03-01T10:31:04;0.40;;;0.40;;
70388;SDS011;58659;49.050;8.530;2023-03-01T10:33:35;5.73;;;2.23;;
70388;SDS011;58659;49.050;8.530;2023-03-01T10:36:04;8.60;;;2.93;;
70388;SDS011;58659;49.050;8.530;2023-03-01T10:38:31;4.03;;;1.80;;
70388;SDS011;58659;49.050;8.530;2023-03-01T10:41:13;5.97;;;2.03;;
70388;SDS011;58659;49.050;8.530;2023-03-01T10:43:45;5.53;;;2.07;;
70388;SDS011;58659;49.050;8.530;2023-03-01T10:49:17;3.30;;;1.40;;
70388;SDS011;58659;49.050;8.530;2023-03-01T10:51:47;4.13;;;2.07;;
70388;SDS011;58659;49.050;8.530;2023-03-01T10:54:16;9.03;;;3.27;;
70388;SDS011;58659;49.050;8.530;2023-03-01T10:56:46;5.47;;;2.30;;
70388;SDS011;58659;49.050;8.530;2023-03-01T10:59:22;3.83;;;3.07;;
70388;SDS011;58659;49.050;8.530;2023-03-01T11:04:58;5.87;;;2.63;;
70388;SDS011;58659;49.050;8.530;2023-03-01T11:07:47;9.07;;;3.40;;
70388;SDS011;58659;49.050;8.530;2023-03-01T11:10:22;7.13;;;2.67;;
70388;SDS011;58659;49.050;8.530;2023-03-01T11:12:50;3.30;;;2.13;;
70388;SDS011;58659;49.050;8.530;2023-03-01T11:15:21;6.37;;;2.83;;
70388;SDS011;58659;49.050;8.530;2023-03-01T11:17:52;6.33;;;1.73;;
70388;SDS011;58659;49.050;8.530;2023-03-01T11:20:32;5.73;;;2.43;;
70388;SDS011;58659;49.050;8.530;2023-03-01T11:23:04;9.33;;;2.87;;
70388;SDS011;58659;49.050;8.530;2023-03-01T11:25:35;4.20;;;1.87;;
70388;SDS011;58659;49.050;8.530;2023-03-01T11:28:05;6.47;;;3.03;;
70388;SDS011;58659;49.050;8.530;2023-03-01T11:36:07;5.83;;;2.40;;
70388;SDS011;58659;49.050;8.530;2023-03-01T11:38:41;9.20;;;3.37;;
70388;SDS011;58659;49.050;8.530;2023-03-01T11:41:08;7.90;;;3.27;;
70388;SDS011;58659;49.050;8.530;2023-03-01T12:08:25;7.40;;;2.83;;
70388;SDS011;58659;49.050;8.530;2023-03-01T12:11:01;9.20;;;3.07;;
70388;SDS011;58659;49.050;8.530;2023-03-01T12:16:27;5.83;;;2.63;;
70388;SDS011;58659;49.050;8.530;2023-03-01T12:38:06;10.33;;;3.37;;
70388;SDS011;58659;49.050;8.530;2023-03-01T12:43:17;9.13;;;3.37;;
70388;SDS011;58659;49.050;8.530;2023-03-01T12:51:11;5.90;;;2.83;;
70388;SDS011;58659;49.050;8.530;2023-03-01T12:53:47;7.77;;;2.77;;
70388;SDS011;58659;49.050;8.530;2023-03-01T12:56:15;6.57;;;2.53;;
70388;SDS011;58659;49.050;8.530;2023-03-01T13:07:29;16.87;;;3.83;;
70388;SDS011;58659;49.050;8.530;2023-03-01T13:09:59;5.77;;;2.57;;
70388;SDS011;58659;49.050;8.530;2023-03-01T13:20:19;5.67;;;2.43;;
70388;SDS011;58659;49.050;8.530;2023-03-01T13:23:06;12.57;;;2.83;;
70388;SDS011;58659;49.050;8.530;2023-03-01T13:25:34;9.23;;;3.23;;
70388;SDS011;58659;49.050;8.530;2023-03-01T13:28:35;7.40;;;3.67;;
70388;SDS011;58659;49.050;8.530;2023-03-01T13:31:06;9.73;;;2.77;;
70388;SDS011;58659;49.050;8.530;2023-03-01T13:33:38;9.60;;;3.33;;
70388;SDS011;58659;49.050;8.530;2023-03-01T13:41:56;8.63;;;3.77;;
70388;SDS011;58659;49.050;8.530;2023-03-01T13:44:34;4.73;;;1.93;;
70388;SDS011;58659;49.050;8.530;2023-03-01T13:47:24;7.63;;;3.20;;
70388;SDS011;58659;49.050;8.530;2023-03-01T13:49:59;7.87;;;2.93;;
70388;SDS011;58659;49.050;8.530;2023-03-01T13:52:34;7.43;;;2.83;;
70388;SDS011;58659;49.050;8.530;2023-03-01T13:55:06;9.43;;;3.20;;
70388;SDS011;58659;49.050;8.530;2023-03-01T13:57:43;6.13;;;2.37;;
70388;SDS011;58659;49.050;8.530;2023-03-01T14:06:08;6.97;;;3.47;;
70388;SDS011;58659;49.050;8.530;2023-03-01T14:08:37;9.07;;;3.17;;
70388;SDS011;58659;49.050;8.530;2023-03-01T14:19:24;8.37;;;3.20;;
70388;SDS011;58659;49.050;8.530;2023-03-01T14:24:37;6.57;;;2.40;;
70388;SDS011;58659;49.050;8.530;2023-03-01T14:27:09;10.73;;;3.17;;
70388;SDS011;58659;49.050;8.530;2023-03-01T14:29:38;8.37;;;3.17;;
70388;SDS011;58659;49.050;8.530;2023-03-01T14:32:11;5.83;;;2.37;;
70388;SDS011;58659;49.050;8.530;2023-03-01T14:34:44;6.63;;;3.10;;
70388;SDS011;58659;49.050;8.530;2023-03-01T14:37:21;6.63;;;2.83;;
70388;SDS011;58659;49.050;8.530;2023-03-01T14:39:54;8.43;;;3.00;;
70388;SDS011;58659;49.050;8.530;2023-03-01T14:42:21;7.20;;;2.80;;
70388;SDS011;58659;49.050;8.530;2023-03-01T14:44:49;6.63;;;2.93;;
70388;SDS011;58659;49.050;8.530;2023-03-01T14:47:26;10.43;;;3.40;;
70388;SDS011;58659;49.050;8.530;2023-03-01T14:50:16;7.63;;;3.33;;
70388;SDS011;58659;49.050;8.530;2023-03-01T14:52:44;8.00;;;3.30;;
70388;SDS011;58659;49.050;8.530;2023-03-01T14:55:15;6.63;;;2.90;;
70388;SDS011;58659;49.050;8.530;2023-03-01T14:57:43;9.57;;;3.97;;
70388;SDS011;58659;49.050;8.530;2023-03-01T15:00:10;7.10;;;3.00;;
70388;SDS011;58659;49.050;8.530;2023-03-01T15:02:43;13.10;;;3.03;;
70388;SDS011;58659;49.050;8.530;2023-03-01T15:05:13;6.60;;;2.87;;
70388;SDS011;58659;49.050;8.530;2023-03-01T15:07:40;7.80;;;2.33;;
70388;SDS011;58659;49.050;8.530;2023-03-01T15:10:12;8.17;;;3.57;;
70388;SDS011;58659;49.050;8.530;2023-03-01T15:12:42;6.93;;;2.47;;
70388;SDS011;58659;49.050;8.530;2023-03-01T15:15:20;6.00;;;2.13;;
70388;SDS011;58659;49.050;8.530;2023-03-01T15:17:58;7.80;;;3.10;;
70388;SDS011;58659;49.050;8.530;2023-03-01T15:20:26;7.60;;;2.63;;
70388;SDS011;58659;49.050;8.530;2023-03-01T15:22:54;6.23;;;2.67;;
70388;SDS011;58659;49.050;8.530;2023-03-01T15:25:22;11.10;;;3.20;;
70388;SDS011;58659;49.050;8.530;2023-03-01T15:27:50;4.17;;;2.07;;
70388;SDS011;58659;49.050;8.530;2023-03-01T15:30:27;11.10;;;3.57;;
70388;SDS011;58659;49.050;8.530;2023-03-01T15:39:02;5.90;;;2.57;;
70388;SDS011;58659;49.050;8.530;2023-03-01T15:41:32;6.33;;;3.17;;
70388;SDS011;58659;49.050;8.530;2023-03-01T15:44:16;9.93;;;3.03;;
70388;SDS011;58659;49.050;8.530;2023-03-01T15:46:49;4.23;;;1.97;;
70388;SDS011;58659;49.050;8.530;2023-03-01T15:52:00;3.07;;;1.83;;
70388;SDS011;58659;49.050;8.530;2023-03-01T15:54:26;4.80;;;2.57;;
70388;SDS011;58659;49.050;8.530;2023-03-01T15:56:52;7.20;;;3.43;;
70388;SDS011;58659;49.050;8.530;2023-03-01T15:59:18;12.13;;;2.80;;
70388;SDS011;58659;49.050;8.530;2023-03-01T16:01:44;6.53;;;2.40;;
70388;SDS011;58659;49.050;8.530;2023-03-01T16:04:10;1.10;;;1.00;;
70388;SDS011;58659;49.050;8.530;2023-03-01T16:06:41;3.83;;;1.67;;
70388;SDS011;58659;49.050;8.530;2023-03-01T16:09:06;1.70;;;1.37;;
70388;SDS011;58659;49.050;8.530;2023-03-01T16:11:31;6.53;;;2.03;;
70388;SDS011;58659;49.050;8.530;2023-03-01T16:13:59;5.87;;;2.40;;
70388;SDS011;58659;49.050;8.530;2023-03-01T16:16:24;7.30;;;2.93;;
70388;SDS011;58659;49.050;8.530;2023-03-01T16:18:50;17.70;;;2.50;;
70388;SDS011;58659;49.050;8.530;2023-03-01T16:21:23;2.80;;;1.27;;
70388;SDS011;58659;49.050;8.530;2023-03-01T16:23:49;6.43;;;1.97;;
70388;SDS011;58659;49.050;8.530;2023-03-01T16:26:16;5.53;;;1.70;;
70388;SDS011;58659;49.050;8.530;2023-03-01T16:28:42;6.33;;;1.37;;
70388;SDS011;58659;49.050;8.530;2023-03-01T16:31:08;7.40;;;2.37;;
70388;SDS011;58659;49.050;8.530;2023-03-01T16:33:34;6.23;;;2.90;;
70388;SDS011;58659;49.050;8.530;2023-03-01T16:36:10;8.90;;;2.57;;
70388;SDS011;58659;49.050;8.530;2023-03-01T16:38:37;10.20;;;3.07;;
70388;SDS011;58659;49.050;8.530;2023-03-01T16:41:03;0.73;;;0.73;;
70388;SDS011;58659;49.050;8.530;2023-03-01T16:43:29;7.23;;;3.27;;
70388;SDS011;58659;49.050;8.530;2023-03-01T16:45:55;1.40;;;1.03;;
70388;SDS011;58659;49.050;8.530;2023-03-01T16:48:21;9.47;;;3.07;;
70388;SDS011;58659;49.050;8.530;2023-03-01T16:50:54;6.50;;;2.93;;
70388;SDS011;58659;49.050;8.530;2023-03-01T16:53:21;9.50;;;3.30;;
70388;SDS011;58659;49.050;8.530;2023-03-01T16:55:52;6.87;;;3.23;;
70388;SDS011;58659;49.050;8.530;2023-03-01T16:58:18;6.47;;;3.17;;
70388;SDS011;58659;49.050;8.530;2023-03-01T17:00:43;8.37;;;2.87;;
70388;SDS011;58659;49.050;8.530;2023-03-01T17:03:08;13.57;;;4.40;;
70388;SDS011;58659;49.050;8.530;2023-03-01T17:05:34;8.60;;;2.93;;
70388;SDS011;58659;49.050;8.530;2023-03-01T17:07:59;11.27;;;3.10;;
70388;SDS011;58659;49.050;8.530;2023-03-01T17:10:24;6.57;;;2.93;;
70388;SDS011;58659;49.050;8.530;2023-03-01T17:12:50;9.60;;;3.80;;
70388;SDS011;58659;49.050;8.530;2023-03-01T17:15:15;12.23;;;4.00;;
70388;SDS011;58659;49.050;8.530;2023-03-01T17:17:41;8.90;;;3.60;;
70388;SDS011;58659;49.050;8.530;2023-03-01T17:20:06;9.73;;;4.10;;